Time;durP1;ratioP1;P1;durP2;ratioP2;P2;SDS_P1;SDS_P2;PMS_P1;PMS_P2;Temp;Humidity;BMP_temperature;BMP_pressure;BME280_temperature;BME280_humidity;BME280_pressure;Samples;Min_cycle;Max_cycle;Signal;HPM_P1;HPM_P2
2021/05/25 00:02:00;;;;;;;1.83;0.90;;;17.70;77.20;;;;;;5051914;28;20063;-75
2021/05/25 00:04:25;;;;;;;2.30;0.80;;;17.70;77.10;;;;;;5051521;28;20064;-75
2021/05/25 00:06:52;;;;;;;3.05;1.05;;;17.70;77.00;;;;;;5051886;28;20452;-75
2021/05/25 00:09:17;;;;;;;1.73;0.70;;;17.70;77.00;;;;;;5051851;28;20420;-75
2021/05/25 00:11:43;;;;;;;3.13;1.00;;;17.60;76.80;;;;;;5051017;28;20021;-75
2021/05/25 00:14:10;;;;;;;3.17;0.88;;;17.60;76.80;;;;;;5051722;28;20044;-75
2021/05/25 00:16:36;;;;;;;3.47;0.80;;;17.60;76.70;;;;;;5050850;28;20547;-76
2021/05/25 00:19:02;;;;;;;2.17;0.70;;;17.60;76.60;;;;;;5051773;28;20400;-75
2021/05/25 00:21:27;;;;;;;2.35;0.70;;;17.60;76.60;;;;;;5051475;28;20025;-76
2021/05/25 00:23:53;;;;;;;1.83;0.60;;;17.60;76.60;;;;;;5051159;28;20431;-73
2021/05/25 00:26:19;;;;;;;2.33;0.90;;;17.60;76.50;;;;;;5051622;28;20021;-74
2021/05/25 00:28:44;;;;;;;2.72;1.05;;;17.60;76.50;;;;;;5051556;28;20033;-73
2021/05/25 00:31:10;;;;;;;2.92;0.90;;;17.60;76.40;;;;;;5051591;28;20025;-73
2021/05/25 00:33:36;;;;;;;3.00;0.93;;;17.60;76.30;;;;;;5050427;28;20076;-73
2021/05/25 00:36:01;;;;;;;1.65;0.68;;;17.50;76.30;;;;;;5051484;28;20025;-73
2021/05/25 00:38:27;;;;;;;2.67;1.15;;;17.50;76.20;;;;;;5051248;28;20029;-74
2021/05/25 00:40:53;;;;;;;2.38;0.70;;;17.50;76.90;;;;;;5051660;28;20025;-74
2021/05/25 00:43:21;;;;;;;6.10;1.25;;;17.60;76.20;;;;;;5051837;28;20064;-74
2021/05/25 00:45:46;;;;;;;1.95;0.60;;;17.50;77.20;;;;;;5051334;28;20029;-74
2021/05/25 00:48:12;;;;;;;2.10;0.85;;;17.50;78.10;;;;;;5051300;28;20033;-74
2021/05/25 00:50:38;;;;;;;2.45;0.60;;;17.60;78.90;;;;;;5050987;28;20028;-74
2021/05/25 00:53:04;;;;;;;1.10;0.52;;;17.50;79.30;;;;;;5050905;28;20041;-73
2021/05/25 00:55:35;;;;;;;1.92;0.60;;;17.50;80.10;;;;;;5050190;28;20028;-73
2021/05/25 00:58:04;;;;;;;1.90;0.77;;;17.50;80.30;;;;;;5051256;28;20033;-73
2021/05/25 01:00:43;;;;;;;1.55;0.52;;;17.50;80.70;;;;;;5050721;28;20087;-74
2021/05/25 01:03:11;;;;;;;3.15;0.70;;;17.50;80.60;;;;;;5050715;28;20029;-74
2021/05/25 01:05:37;;;;;;;1.50;0.45;;;17.50;81.00;;;;;;5050602;28;20009;-73
2021/05/25 01:08:04;;;;;;;1.90;0.70;;;17.50;81.00;;;;;;5050534;28;20041;-73
2021/05/25 01:10:38;;;;;;;1.27;0.70;;;17.50;80.90;;;;;;5050973;28;20017;-73
2021/05/25 01:13:12;;;;;;;2.53;0.70;;;17.50;80.90;;;;;;5050883;28;20033;-73
2021/05/25 01:15:39;;;;;;;1.48;0.60;;;17.40;80.80;;;;;;5050604;28;20032;-73
2021/05/25 01:18:06;;;;;;;2.00;0.57;;;17.40;80.40;;;;;;5050963;28;20064;-73
2021/05/25 01:20:34;;;;;;;2.22;0.70;;;17.40;80.50;;;;;;5050643;28;20452;-73
2021/05/25 01:23:00;;;;;;;1.42;0.60;;;17.40;80.40;;;;;;5055196;28;20083;-73
2021/05/25 01:25:27;;;;;;;2.33;0.60;;;17.40;80.40;;;;;;5054174;28;20033;-73
2021/05/25 01:27:59;;;;;;;2.78;0.70;;;17.40;80.20;;;;;;5054826;28;20392;-74
2021/05/25 01:30:37;;;;;;;2.58;0.73;;;17.40;80.10;;;;;;5054693;28;20029;-74
2021/05/25 01:33:04;;;;;;;1.55;0.50;;;17.40;80.00;;;;;;5054290;28;20648;-74
2021/05/25 01:35:30;;;;;;;1.27;0.50;;;17.40;79.80;;;;;;5054668;28;20018;-75
2021/05/25 01:37:57;;;;;;;1.45;0.60;;;17.40;79.90;;;;;;5054862;28;20032;-73
2021/05/25 01:40:24;;;;;;;2.33;0.60;;;17.40;79.70;;;;;;5054547;28;20071;-73
2021/05/25 01:42:50;;;;;;;2.00;0.50;;;17.40;79.60;;;;;;5054885;28;20473;-73
2021/05/25 01:45:24;;;;;;;1.70;0.80;;;17.40;79.60;;;;;;5054881;28;20066;-74
2021/05/25 01:47:51;;;;;;;3.08;0.63;;;17.40;79.50;;;;;;5054847;28;20503;-73
2021/05/25 01:50:18;;;;;;;2.63;0.60;;;17.40;79.50;;;;;;5054836;28;20021;-73
2021/05/25 01:53:00;;;;;;;2.25;0.60;;;17.30;79.30;;;;;;5053923;28;20068;-74
2021/05/25 01:55:47;;;;;;;2.03;0.60;;;17.30;79.30;;;;;;5054025;28;20025;-74
2021/05/25 01:58:14;;;;;;;1.73;0.50;;;17.30;79.30;;;;;;5054349;28;20108;-74
2021/05/25 02:00:44;;;;;;;1.23;0.60;;;17.30;79.10;;;;;;5053761;28;20021;-74
2021/05/25 02:03:10;;;;;;;1.42;0.65;;;17.30;79.00;;;;;;5054399;28;20033;-73
2021/05/25 02:05:36;;;;;;;2.42;0.60;;;17.30;79.00;;;;;;5053982;28;20155;-74
2021/05/25 02:08:04;;;;;;;2.22;0.60;;;17.30;78.80;;;;;;5053862;28;20492;-76
2021/05/25 02:10:47;;;;;;;1.65;0.50;;;17.30;78.80;;;;;;5053816;28;20021;-74
2021/05/25 02:13:25;;;;;;;2.35;0.50;;;17.30;78.70;;;;;;5054228;28;20075;-75
2021/05/25 02:15:53;;;;;;;1.20;0.40;;;17.30;78.50;;;;;;5054421;28;20013;-74
2021/05/25 02:18:21;;;;;;;2.95;0.75;;;17.30;78.40;;;;;;5054331;28;20029;-73
2021/05/25 02:20:50;;;;;;;2.40;0.85;;;17.30;78.30;;;;;;5054350;28;20021;-75
2021/05/25 02:23:16;;;;;;;3.65;1.00;;;17.20;78.10;;;;;;5054082;28;20067;-74
2021/05/25 02:25:42;;;;;;;1.88;0.50;;;17.20;78.20;;;;;;5052332;28;20037;-73
2021/05/25 02:28:09;;;;;;;2.60;0.60;;;17.20;78.00;;;;;;5053898;28;20025;-74
2021/05/25 02:30:36;;;;;;;1.98;0.57;;;17.20;77.90;;;;;;5053450;28;20025;-74
2021/05/25 02:33:06;;;;;;;1.30;0.50;;;17.20;77.90;;;;;;5053039;28;20120;-73
2021/05/25 02:35:35;;;;;;;1.42;0.50;;;17.20;77.90;;;;;;5053255;28;20017;-75
2021/05/25 02:38:01;;;;;;;0.90;0.50;;;17.20;77.70;;;;;;5053795;28;20389;-73
2021/05/25 02:40:27;;;;;;;1.30;0.47;;;17.20;77.80;;;;;;5053321;28;20029;-74
2021/05/25 02:42:54;;;;;;;2.75;0.70;;;17.20;77.70;;;;;;5053437;28;20037;-74
2021/05/25 02:45:20;;;;;;;1.38;0.52;;;17.10;77.60;;;;;;5053810;28;20045;-74
2021/05/25 02:47:45;;;;;;;1.23;0.50;;;17.20;77.50;;;;;;5052884;28;20028;-75
2021/05/25 02:50:11;;;;;;;2.35;1.08;;;17.10;77.50;;;;;;5053420;28;20033;-73
2021/05/25 02:52:40;;;;;;;1.25;0.50;;;17.10;77.40;;;;;;5053016;28;20598;-74
2021/05/25 02:55:08;;;;;;;1.83;0.60;;;17.10;77.40;;;;;;5052772;28;20025;-74
2021/05/25 02:57:35;;;;;;;1.55;0.50;;;17.10;77.30;;;;;;5052356;28;20032;-75
2021/05/25 03:00:07;;;;;;;1.70;0.47;;;17.10;77.30;;;;;;5053027;28;20041;-75
2021/05/25 03:02:33;;;;;;;2.28;0.60;;;17.10;77.20;;;;;;5052909;28;20032;-74
2021/05/25 03:04:59;;;;;;;1.77;0.47;;;17.10;77.10;;;;;;5053135;28;20021;-74
2021/05/25 03:07:25;;;;;;;1.25;0.60;;;17.10;77.10;;;;;;5052710;28;20068;-76
2021/05/25 03:09:51;;;;;;;3.20;0.32;;;17.10;77.10;;;;;;5053232;28;20021;-75
2021/05/25 03:12:16;;;;;;;1.98;1.10;;;17.10;77.00;;;;;;5053345;28;20033;-74
2021/05/25 03:14:42;;;;;;;1.17;0.38;;;17.10;77.00;;;;;;5052773;28;20021;-75
2021/05/25 03:17:08;;;;;;;2.22;0.57;;;17.10;77.00;;;;;;5052880;28;20036;-74
2021/05/25 03:19:33;;;;;;;2.35;0.60;;;17.10;76.90;;;;;;5052679;28;20488;-74
2021/05/25 03:21:59;;;;;;;3.03;0.50;;;17.00;76.80;;;;;;5052892;28;20466;-74
2021/05/25 03:24:28;;;;;;;0.95;0.40;;;17.00;76.80;;;;;;5052318;28;20142;-74
2021/05/25 03:26:54;;;;;;;1.60;0.60;;;17.00;76.70;;;;;;5052571;28;20600;-75
2021/05/25 03:29:19;;;;;;;2.72;0.50;;;17.00;76.80;;;;;;5053036;28;20129;-74
2021/05/25 03:31:45;;;;;;;2.42;0.60;;;17.10;76.80;;;;;;5052296;28;20052;-73
2021/05/25 03:34:11;;;;;;;0.68;0.57;;;17.00;76.70;;;;;;5052732;28;20029;-74
2021/05/25 03:36:37;;;;;;;2.00;0.65;;;17.00;76.60;;;;;;5052427;28;20370;-75
2021/05/25 03:39:04;;;;;;;1.10;0.45;;;17.00;76.60;;;;;;5052443;28;20029;-74
2021/05/25 03:41:30;;;;;;;1.50;0.60;;;17.00;76.60;;;;;;5052061;28;20100;-74
2021/05/25 03:43:57;;;;;;;1.83;0.70;;;17.00;76.50;;;;;;5052183;28;20037;-75
2021/05/25 03:46:22;;;;;;;1.42;0.43;;;17.00;76.60;;;;;;5051285;28;20035;-75
2021/05/25 03:48:48;;;;;;;2.03;0.55;;;17.00;76.50;;;;;;5052015;28;20029;-74
2021/05/25 03:51:14;;;;;;;1.83;0.50;;;16.90;76.50;;;;;;5052399;28;20032;-74
2021/05/25 03:53:39;;;;;;;1.95;0.60;;;17.00;76.50;;;;;;5051453;28;20037;-73
2021/05/25 03:56:31;;;;;;;1.20;0.60;;;16.90;76.40;;;;;;5051516;28;20027;-73
2021/05/25 03:58:52;;;;;;;1.95;0.60;;;17.00;76.40;;;;;;5051211;28;20044;-74
2021/05/25 04:01:20;;;;;;;1.63;0.60;;;16.90;76.30;;;;;;5052541;28;20044;-74
2021/05/25 04:03:57;;;;;;;1.38;0.60;;;17.00;76.40;;;;;;5052442;28;20029;-73
2021/05/25 04:06:23;;;;;;;2.05;0.80;;;16.90;76.30;;;;;;5050046;28;20037;-74
2021/05/25 04:08:49;;;;;;;1.88;0.50;;;16.90;76.30;;;;;;5052408;28;20040;-73
2021/05/25 04:11:17;;;;;;;1.98;0.80;;;16.90;76.30;;;;;;5051624;28;20021;-74
2021/05/25 04:13:44;;;;;;;2.05;0.60;;;16.90;76.20;;;;;;5051341;28;20040;-75
2021/05/25 04:16:13;;;;;;;3.42;0.82;;;16.90;76.30;;;;;;5051754;28;20484;-73
2021/05/25 04:18:41;;;;;;;2.78;1.00;;;16.90;76.30;;;;;;5051642;28;20112;-74
2021/05/25 04:21:07;;;;;;;0.90;0.45;;;16.90;76.30;;;;;;5051488;28;20488;-75
2021/05/25 04:23:33;;;;;;;2.33;0.70;;;16.90;76.20;;;;;;5050875;28;20104;-74
2021/05/25 04:25:59;;;;;;;1.77;0.60;;;16.90;76.20;;;;;;5051409;28;20052;-73
2021/05/25 04:28:24;;;;;;;2.13;0.63;;;16.90;76.30;;;;;;5050840;28;20029;-74
2021/05/25 04:30:51;;;;;;;1.77;0.60;;;16.90;76.20;;;;;;5052040;28;20104;-73
2021/05/25 04:33:16;;;;;;;1.45;0.52;;;16.90;76.20;;;;;;5050412;28;20045;-73
2021/05/25 04:35:43;;;;;;;2.70;0.70;;;16.90;76.20;;;;;;5051181;28;20123;-73
2021/05/25 04:38:08;;;;;;;1.67;0.52;;;16.90;76.10;;;;;;5051415;28;20028;-73
2021/05/25 04:40:35;;;;;;;4.68;0.85;;;16.90;76.80;;;;;;5050887;28;20017;-74
2021/05/25 04:43:02;;;;;;;1.30;0.55;;;16.90;76.10;;;;;;5051149;28;20056;-74
2021/05/25 04:45:28;;;;;;;1.48;0.47;;;16.90;76.10;;;;;;5051401;28;20420;-75
2021/05/25 04:47:53;;;;;;;2.08;0.75;;;16.90;76.10;;;;;;5051153;28;20032;-73
2021/05/25 04:50:20;;;;;;;1.55;0.60;;;16.90;76.10;;;;;;5051610;28;20028;-74
2021/05/25 04:52:46;;;;;;;1.42;0.60;;;16.90;76.00;;;;;;5050811;28;20036;-74
2021/05/25 04:55:15;;;;;;;2.15;0.90;;;16.80;75.90;;;;;;5049403;28;20056;-74
2021/05/25 04:57:41;;;;;;;2.25;0.95;;;16.90;75.90;;;;;;5050747;28;20100;-74
2021/05/25 05:00:10;;;;;;;1.33;0.60;;;16.80;75.80;;;;;;5050782;28;20035;-74
2021/05/25 05:02:36;;;;;;;1.95;0.68;;;16.80;75.80;;;;;;5042859;28;20104;-75
2021/05/25 05:05:02;;;;;;;2.63;0.90;;;16.80;75.80;;;;;;5050674;28;20112;-76
2021/05/25 05:07:28;;;;;;;1.95;0.60;;;16.80;75.80;;;;;;5050586;28;20045;-75
2021/05/25 05:09:53;;;;;;;2.50;0.50;;;16.80;75.80;;;;;;5051154;28;20021;-75
2021/05/25 05:12:19;;;;;;;2.03;0.80;;;16.80;75.80;;;;;;5051389;28;20029;-73
2021/05/25 05:14:44;;;;;;;3.85;0.90;;;16.80;75.80;;;;;;5050291;28;20032;-73
2021/05/25 05:17:10;;;;;;;2.97;0.57;;;16.80;75.80;;;;;;5050807;28;20561;-74
2021/05/25 05:19:35;;;;;;;1.67;0.47;;;16.80;75.80;;;;;;5050787;28;20067;-74
2021/05/25 05:22:01;;;;;;;1.65;0.60;;;16.80;75.80;;;;;;5050927;28;20029;-75
2021/05/25 05:24:27;;;;;;;3.05;0.80;;;16.80;75.80;;;;;;5050979;28;20028;-74
2021/05/25 05:26:52;;;;;;;2.22;0.80;;;16.80;75.70;;;;;;5050834;28;20092;-73
2021/05/25 05:29:18;;;;;;;1.88;0.60;;;16.80;75.70;;;;;;5051190;28;20048;-75
2021/05/25 05:31:45;;;;;;;4.07;0.57;;;16.80;75.80;;;;;;5050245;28;20481;-74
2021/05/25 05:34:12;;;;;;;1.35;0.80;;;16.80;76.40;;;;;;5050903;28;20036;-74
2021/05/25 05:36:37;;;;;;;1.63;0.60;;;16.70;75.70;;;;;;5050461;28;20060;-73
2021/05/25 05:39:04;;;;;;;1.95;0.43;;;16.70;75.60;;;;;;5050687;28;20121;-74
2021/05/25 05:41:30;;;;;;;2.85;0.70;;;16.70;75.60;;;;;;5050517;28;20025;-73
2021/05/25 05:43:56;;;;;;;3.42;0.57;;;16.80;75.60;;;;;;5050390;28;20380;-75
2021/05/25 05:46:21;;;;;;;5.25;0.90;;;16.80;75.60;;;;;;5050374;28;20020;-74
2021/05/25 05:48:47;;;;;;;2.38;0.60;;;16.70;75.50;;;;;;5050956;28;20032;-73
2021/05/25 05:51:13;;;;;;;1.98;0.82;;;16.70;75.50;;;;;;5050169;28;20029;-73
2021/05/25 05:53:39;;;;;;;1.45;0.73;;;16.70;75.70;;;;;;5049892;28;20079;-73
2021/05/25 05:56:04;;;;;;;1.90;0.70;;;16.70;75.90;;;;;;5050669;28;20052;-74
2021/05/25 05:58:30;;;;;;;1.80;0.43;;;16.70;76.00;;;;;;5050321;28;20103;-75
2021/05/25 06:00:56;;;;;;;8.57;0.47;;;16.70;76.20;;;;;;5050338;28;20061;-74
2021/05/25 06:03:21;;;;;;;2.72;0.75;;;16.80;76.10;;;;;;5048683;28;20484;-74
2021/05/25 06:05:47;;;;;;;2.88;0.70;;;16.90;76.20;;;;;;5050828;28;20028;-73
2021/05/25 06:08:14;;;;;;;3.70;0.85;;;16.90;76.30;;;;;;5051587;28;20061;-72
2021/05/25 06:10:42;;;;;;;1.88;0.60;;;17.00;76.20;;;;;;5053833;28;20025;-73
2021/05/25 06:13:08;;;;;;;1.75;0.40;;;17.00;76.20;;;;;;5054009;28;20471;-72
2021/05/25 06:15:34;;;;;;;2.35;0.70;;;17.10;76.30;;;;;;5053622;28;20021;-72
2021/05/25 06:18:00;;;;;;;4.50;0.73;;;17.10;76.20;;;;;;5053839;28;20477;-72
2021/05/25 06:20:27;;;;;;;1.13;0.50;;;17.20;76.80;;;;;;5053614;28;20022;-72
2021/05/25 06:22:52;;;;;;;3.83;0.90;;;17.30;76.50;;;;;;5053663;28;20027;-73
2021/05/25 06:25:18;;;;;;;2.70;0.90;;;17.30;77.10;;;;;;5054189;28;20107;-72
2021/05/25 06:27:44;;;;;;;2.67;0.90;;;17.40;76.50;;;;;;5053117;28;20029;-74
2021/05/25 06:30:11;;;;;;;5.55;1.13;;;17.50;76.60;;;;;;5068324;28;20013;-73
2021/05/25 06:32:37;;;;;;;2.42;0.85;;;17.50;77.00;;;;;;5050827;28;20048;-73
2021/05/25 06:35:04;;;;;;;2.65;1.05;;;17.60;77.10;;;;;;5049665;28;20014;-73
2021/05/25 06:37:30;;;;;;;3.95;1.00;;;17.60;77.40;;;;;;5052061;28;20074;-72
2021/05/25 06:39:56;;;;;;;3.83;1.00;;;17.70;77.10;;;;;;5051146;28;20029;-73
2021/05/25 06:42:22;;;;;;;4.43;0.90;;;17.80;76.80;;;;;;5051552;28;20033;-74
2021/05/25 06:44:47;;;;;;;3.33;0.70;;;17.80;76.80;;;;;;5052798;28;20078;-73
2021/05/25 06:47:13;;;;;;;2.35;0.73;;;17.80;76.50;;;;;;5052803;28;20037;-73
2021/05/25 06:49:39;;;;;;;3.05;0.77;;;17.90;76.10;;;;;;5052501;28;20396;-74
2021/05/25 06:52:07;;;;;;;2.15;0.75;;;18.00;76.20;;;;;;5052830;28;20033;-74
2021/05/25 06:54:33;;;;;;;2.55;0.90;;;18.10;76.00;;;;;;5052141;28;20025;-74
2021/05/25 06:56:59;;;;;;;2.35;0.70;;;18.10;75.20;;;;;;5052786;28;20037;-75
2021/05/25 06:59:24;;;;;;;3.30;0.70;;;18.20;75.20;;;;;;5052732;28;20455;-75
2021/05/25 07:01:50;;;;;;;2.65;0.68;;;18.20;74.80;;;;;;5053217;28;20124;-75
2021/05/25 07:04:16;;;;;;;4.25;1.00;;;18.20;75.40;;;;;;5053241;28;20032;-75
2021/05/25 07:06:41;;;;;;;2.03;1.00;;;18.30;74.50;;;;;;5052877;28;20079;-75
2021/05/25 07:09:07;;;;;;;2.75;0.65;;;18.30;74.10;;;;;;5053204;28;20067;-75
2021/05/25 07:11:33;;;;;;;3.13;0.68;;;18.30;73.90;;;;;;5052905;28;20500;-75
2021/05/25 07:13:59;;;;;;;1.45;0.60;;;18.30;73.80;;;;;;5052310;28;20051;-76
2021/05/25 07:16:25;;;;;;;5.05;0.90;;;18.30;73.60;;;;;;5050248;28;20025;-75
2021/05/25 07:18:51;;;;;;;2.05;0.73;;;18.30;73.30;;;;;;5051750;28;20108;-74
2021/05/25 07:21:16;;;;;;;2.00;0.70;;;18.40;73.20;;;;;;5052540;28;20415;-74
2021/05/25 07:23:42;;;;;;;5.75;0.90;;;18.40;73.00;;;;;;5052597;28;20493;-74
2021/05/25 07:26:07;;;;;;;5.15;1.00;;;18.40;73.00;;;;;;5051205;28;20029;-73
2021/05/25 07:28:33;;;;;;;2.75;0.80;;;18.40;72.60;;;;;;5052599;28;20021;-74
2021/05/25 07:30:59;;;;;;;3.90;0.70;;;18.40;72.40;;;;;;5052453;28;20032;-74
2021/05/25 07:33:26;;;;;;;3.38;0.80;;;18.40;72.50;;;;;;5051771;28;20073;-74
2021/05/25 07:35:52;;;;;;;6.32;0.63;;;18.40;72.30;;;;;;5052663;28;20013;-74
2021/05/25 07:38:18;;;;;;;5.25;0.93;;;18.40;72.30;;;;;;5051438;28;20032;-73
2021/05/25 07:40:43;;;;;;;2.83;0.80;;;18.40;72.30;;;;;;5052337;28;20024;-72
2021/05/25 07:43:09;;;;;;;3.28;0.70;;;18.40;72.10;;;;;;5052242;28;20035;-75
2021/05/25 07:45:35;;;;;;;3.67;0.70;;;18.40;72.00;;;;;;5051867;28;20027;-72
2021/05/25 07:48:01;;;;;;;3.35;0.60;;;18.40;71.90;;;;;;5052040;28;20029;-72
2021/05/25 07:50:27;;;;;;;4.75;0.73;;;18.40;71.90;;;;;;5052054;28;20105;-73
2021/05/25 07:52:55;;;;;;;5.43;0.77;;;18.40;71.80;;;;;;5051105;28;20468;-73
2021/05/25 07:55:23;;;;;;;2.63;0.88;;;18.40;71.70;;;;;;5052203;28;20103;-75
2021/05/25 07:57:50;;;;;;;5.47;1.08;;;18.40;71.60;;;;;;5050493;28;20033;-74
2021/05/25 08:00:17;;;;;;;2.40;0.70;;;18.40;71.40;;;;;;5052245;28;20028;-74
2021/05/25 08:02:44;;;;;;;4.13;0.75;;;18.40;71.20;;;;;;5052008;28;20112;-74
2021/05/25 08:05:10;;;;;;;5.50;1.02;;;18.40;71.40;;;;;;5051948;28;20107;-74
2021/05/25 08:07:36;;;;;;;6.05;0.77;;;18.40;71.20;;;;;;5051516;28;20029;-74
2021/05/25 08:10:05;;;;;;;2.38;0.50;;;18.40;70.90;;;;;;5051783;28;20446;-75
2021/05/25 08:12:31;;;;;;;4.75;0.85;;;18.40;70.80;;;;;;5051549;28;20037;-74
2021/05/25 08:14:58;;;;;;;3.78;1.00;;;18.40;70.60;;;;;;5051087;28;20052;-74
2021/05/25 08:20:15;;;;;;;5.03;0.70;;;18.40;70.60;;;;;;5051758;28;20035;-75
2021/05/25 08:22:48;;;;;;;4.88;0.80;;;18.40;70.60;;;;;;5050332;28;20024;-74
2021/05/25 08:25:16;;;;;;;3.85;0.90;;;18.40;70.60;;;;;;5051120;28;20403;-77
2021/05/25 08:27:42;;;;;;;6.25;1.13;;;18.40;70.60;;;;;;5051383;28;20078;-74
2021/05/25 08:30:09;;;;;;;3.00;0.85;;;18.30;70.60;;;;;;5050283;28;20041;-74
2021/05/25 08:32:36;;;;;;;3.55;0.80;;;18.30;70.50;;;;;;5048806;28;20107;-74
2021/05/25 08:35:03;;;;;;;2.30;0.68;;;18.30;70.50;;;;;;5050430;28;20067;-76
2021/05/25 08:37:29;;;;;;;4.25;0.98;;;18.30;70.50;;;;;;5050975;28;20055;-74
2021/05/25 08:39:55;;;;;;;3.78;0.70;;;18.30;70.40;;;;;;5050794;28;20079;-75
2021/05/25 08:42:21;;;;;;;3.45;0.90;;;18.30;70.50;;;;;;5051670;28;20028;-75
2021/05/25 08:44:47;;;;;;;2.92;0.70;;;18.30;70.30;;;;;;5051759;28;20059;-74
2021/05/25 08:47:13;;;;;;;4.63;0.90;;;18.30;70.40;;;;;;5051251;28;20050;-74
2021/05/25 08:49:40;;;;;;;5.93;1.25;;;18.30;70.30;;;;;;5050883;28;20025;-75
2021/05/25 08:52:08;;;;;;;3.67;1.00;;;18.20;70.10;;;;;;5050998;28;20400;-74
2021/05/25 08:54:34;;;;;;;4.47;0.90;;;18.20;70.20;;;;;;5050906;28;20033;-74
2021/05/25 08:56:59;;;;;;;2.72;1.00;;;18.20;70.20;;;;;;5051077;28;20384;-74
2021/05/25 08:59:25;;;;;;;2.92;0.70;;;18.20;70.10;;;;;;5050835;28;20032;-74
2021/05/25 09:01:51;;;;;;;3.70;0.85;;;18.20;70.00;;;;;;5050512;28;20047;-75
2021/05/25 09:04:17;;;;;;;3.38;0.93;;;18.30;70.00;;;;;;5050735;28;20040;-76
2021/05/25 09:06:44;;;;;;;4.20;0.98;;;18.20;70.00;;;;;;5049753;28;20108;-76
2021/05/25 09:09:15;;;;;;;6.60;1.05;;;18.20;70.20;;;;;;5050485;28;20033;-76
2021/05/25 09:12:10;;;;;;;4.32;0.90;;;18.10;70.10;;;;;;5050185;28;20397;-76
2021/05/25 09:14:51;;;;;;;3.67;1.00;;;18.20;70.20;;;;;;5048031;28;20041;-74
2021/05/25 09:17:21;;;;;;;4.07;1.10;;;18.10;70.20;;;;;;5050981;28;20025;-75
2021/05/25 09:19:49;;;;;;;3.95;1.00;;;18.10;70.20;;;;;;5050727;28;20037;-74
2021/05/25 09:22:33;;;;;;;11.35;1.38;;;18.10;70.10;;;;;;5050292;28;20380;-75
2021/05/25 09:25:23;;;;;;;4.38;1.10;;;18.10;70.10;;;;;;5050413;28;20029;-76
2021/05/25 09:28:02;;;;;;;4.13;1.10;;;18.10;70.10;;;;;;5051100;28;20036;-76
2021/05/25 09:30:32;;;;;;;2.92;0.63;;;18.10;70.10;;;;;;5050306;28;20481;-76
2021/05/25 09:33:01;;;;;;;3.58;0.90;;;18.10;70.10;;;;;;5050578;28;20037;-76
2021/05/25 09:35:34;;;;;;;5.18;1.13;;;18.10;70.10;;;;;;5050322;28;20025;-76
2021/05/25 09:38:07;;;;;;;4.55;1.10;;;18.10;69.90;;;;;;5050241;28;20029;-76
2021/05/25 09:40:34;;;;;;;6.35;1.48;;;18.10;69.80;;;;;;5049506;28;20079;-76
2021/05/25 09:43:26;;;;;;;2.42;0.85;;;18.10;69.80;;;;;;5051496;28;20100;-75
2021/05/25 09:46:13;;;;;;;4.70;1.20;;;18.10;69.50;;;;;;5054075;28;20043;-76
2021/05/25 09:48:42;;;;;;;4.93;1.08;;;18.10;69.50;;;;;;5045759;28;20029;-76
2021/05/25 09:51:28;;;;;;;5.22;1.27;;;18.10;69.40;;;;;;5054478;28;20112;-77
2021/05/25 09:53:56;;;;;;;3.63;1.02;;;18.10;69.30;;;;;;5054428;28;20400;-76
2021/05/25 09:56:23;;;;;;;5.15;1.20;;;18.10;69.20;;;;;;5053796;28;20539;-76
2021/05/25 09:58:49;;;;;;;3.33;0.98;;;18.10;69.30;;;;;;5054724;28;20074;-77
2021/05/25 10:01:15;;;;;;;4.43;1.20;;;18.00;69.20;;;;;;5053551;28;20424;-74
2021/05/25 10:03:52;;;;;;;7.20;1.20;;;18.00;69.20;;;;;;5053679;28;20029;-74
2021/05/25 10:06:18;;;;;;;5.57;1.10;;;18.00;69.30;;;;;;5053761;28;20029;-75
2021/05/25 10:08:45;;;;;;;7.10;1.10;;;17.90;69.10;;;;;;5054071;28;20025;-74
2021/05/25 10:11:15;;;;;;;4.80;1.30;;;18.00;69.20;;;;;;5054016;28;20376;-74
2021/05/25 10:13:40;;;;;;;5.35;0.82;;;18.00;69.00;;;;;;5053804;28;20567;-74
2021/05/25 10:16:09;;;;;;;4.25;1.05;;;18.00;69.00;;;;;;5054170;28;20021;-74
2021/05/25 10:18:49;;;;;;;4.13;0.82;;;18.00;69.00;;;;;;5053968;28;20366;-74
2021/05/25 10:21:15;;;;;;;3.22;1.30;;;18.00;69.00;;;;;;5053865;28;20546;-74
2021/05/25 10:23:43;;;;;;;2.47;0.73;;;18.00;69.00;;;;;;5052179;28;20032;-73
2021/05/25 10:26:17;;;;;;;3.17;0.98;;;18.00;69.00;;;;;;5053556;28;20025;-73
2021/05/25 10:28:53;;;;;;;3.85;1.17;;;18.00;69.10;;;;;;5053717;28;20503;-72
2021/05/25 10:31:29;;;;;;;3.05;0.85;;;18.00;69.10;;;;;;5054064;28;20392;-73
2021/05/25 10:34:19;;;;;;;5.63;0.93;;;17.90;69.10;;;;;;5053467;28;20049;-73
2021/05/25 10:36:59;;;;;;;4.80;0.95;;;17.90;69.90;;;;;;5033453;28;20030;-74
2021/05/25 10:39:29;;;;;;;4.55;0.88;;;17.90;69.20;;;;;;5051661;28;20517;-73
2021/05/25 10:42:22;;;;;;;3.97;1.10;;;17.90;69.60;;;;;;5053158;28;20029;-72
2021/05/25 10:44:51;;;;;;;4.63;0.93;;;17.90;69.70;;;;;;5053826;28;20036;-73
2021/05/25 10:47:24;;;;;;;3.38;1.00;;;17.80;69.70;;;;;;5053091;28;20144;-72
2021/05/25 10:50:15;;;;;;;3.33;0.90;;;17.80;69.90;;;;;;5053730;28;20021;-75
2021/05/25 10:53:03;;;;;;;3.95;0.85;;;17.90;69.90;;;;;;5051735;28;20087;-74
2021/05/25 10:55:34;;;;;;;3.80;0.93;;;18.00;70.00;;;;;;5051356;28;20092;-72
2021/05/25 10:58:35;;;;;;;4.57;0.95;;;18.00;69.90;;;;;;5051477;28;20033;-74
2021/05/25 11:01:03;;;;;;;7.10;0.60;;;18.10;70.10;;;;;;5052381;28;20021;-73
2021/05/25 11:03:29;;;;;;;4.60;0.80;;;18.10;70.20;;;;;;5051385;28;20033;-73
2021/05/25 11:06:03;;;;;;;3.28;0.90;;;18.20;70.50;;;;;;5051928;28;20111;-74
2021/05/25 11:08:34;;;;;;;2.97;0.60;;;18.30;71.70;;;;;;5052473;28;20531;-73
2021/05/25 11:11:02;;;;;;;5.72;0.95;;;18.40;71.00;;;;;;5052965;28;20029;-73
2021/05/25 11:13:29;;;;;;;4.43;0.68;;;18.50;70.90;;;;;;5052125;28;20520;-73
2021/05/25 11:16:12;;;;;;;4.30;0.80;;;18.50;71.60;;;;;;5048046;28;20507;-74
2021/05/25 11:18:59;;;;;;;2.47;0.65;;;18.60;71.40;;;;;;5052369;28;20447;-73
2021/05/25 11:24:36;;;;;;;1.95;0.55;;;18.80;71.70;;;;;;5053474;28;20039;-73
2021/05/25 11:27:33;;;;;;;5.60;0.50;;;18.90;71.40;;;;;;5052817;28;20056;-73
2021/05/25 11:30:01;;;;;;;;;;;19.00;71.50;;;;;;5038407;28;20037;-73
2021/05/25 11:32:30;;;;;;;2.40;0.63;;;19.10;71.20;;;;;;5035963;28;19920;-73
2021/05/25 11:35:01;;;;;;;3.22;0.80;;;19.20;71.00;;;;;;5032888;28;20033;-73
2021/05/25 11:37:30;;;;;;;3.95;1.00;;;19.30;71.20;;;;;;5032562;28;20500;-73
2021/05/25 11:39:56;;;;;;;3.90;0.93;;;19.40;71.20;;;;;;5032989;28;20080;-73
2021/05/25 11:42:24;;;;;;;2.65;0.73;;;19.50;71.00;;;;;;5032519;28;20029;-72
2021/05/25 11:44:51;;;;;;;2.03;0.88;;;19.50;70.90;;;;;;5032890;28;20075;-73
2021/05/25 11:47:17;;;;;;;3.13;0.70;;;19.60;70.90;;;;;;5049670;28;20036;-73
2021/05/25 11:49:44;;;;;;;5.90;0.73;;;19.60;70.70;;;;;;5052205;28;20021;-73
2021/05/25 11:52:17;;;;;;;4.60;1.15;;;19.70;70.60;;;;;;5052438;28;20016;-73
2021/05/25 11:54:43;;;;;;;3.72;0.65;;;19.70;70.50;;;;;;5052030;28;20554;-73
2021/05/25 11:57:32;;;;;;;5.40;0.80;;;19.80;70.50;;;;;;5052176;28;20493;-73
2021/05/25 12:00:07;;;;;;;3.72;0.65;;;19.80;70.40;;;;;;5052261;28;20041;-73
2021/05/25 12:02:34;;;;;;;3.93;0.77;;;19.80;71.70;;;;;;5051194;28;20036;-73
2021/05/25 12:05:18;;;;;;;3.42;0.65;;;19.80;71.30;;;;;;5051983;28;20036;-73
2021/05/25 12:07:50;;;;;;;3.45;0.60;;;19.80;71.10;;;;;;5050215;28;20055;-73
2021/05/25 12:10:21;;;;;;;2.58;0.68;;;19.80;71.10;;;;;;5050924;28;20125;-72
2021/05/25 12:12:49;;;;;;;1.98;0.60;;;19.70;71.30;;;;;;5052212;28;20056;-73
2021/05/25 12:15:24;;;;;;;3.55;0.60;;;19.70;71.20;;;;;;5051436;28;20031;-73
2021/05/25 12:17:55;;;;;;;4.20;0.82;;;19.70;71.20;;;;;;5052016;28;20025;-73
2021/05/25 12:20:37;;;;;;;4.82;0.82;;;19.70;71.30;;;;;;5051827;28;20033;-73
2021/05/25 12:23:06;;;;;;;4.85;0.88;;;19.70;71.50;;;;;;5052379;28;20041;-73
2021/05/25 12:25:32;;;;;;;3.67;0.60;;;19.60;71.30;;;;;;5051073;28;20025;-73
2021/05/25 12:28:17;;;;;;;2.28;0.70;;;19.60;71.40;;;;;;5051656;28;20040;-73
2021/05/25 12:30:49;;;;;;;3.53;0.82;;;19.60;71.40;;;;;;5051562;28;20029;-73
2021/05/25 12:33:19;;;;;;;3.67;0.85;;;19.60;71.40;;;;;;5051217;28;20040;-73
2021/05/25 12:35:45;;;;;;;2.28;0.60;;;19.60;71.40;;;;;;5051806;28;20021;-73
2021/05/25 12:38:15;;;;;;;5.07;1.05;;;19.60;71.20;;;;;;5051221;28;20037;-73
2021/05/25 12:40:42;;;;;;;3.10;0.68;;;19.60;71.10;;;;;;5051274;28;20593;-74
2021/05/25 12:43:22;;;;;;;2.15;1.00;;;19.60;71.00;;;;;;5051345;28;20032;-73
2021/05/25 12:45:50;;;;;;;5.72;0.82;;;19.60;71.00;;;;;;5051187;28;20056;-73
2021/05/25 12:48:16;;;;;;;5.20;0.98;;;19.60;70.90;;;;;;5050730;28;20013;-73
2021/05/25 12:50:43;;;;;;;3.88;1.20;;;19.50;71.70;;;;;;5051225;28;20486;-73
2021/05/25 12:53:13;;;;;;;3.80;0.90;;;19.40;70.80;;;;;;5050434;28;20599;-73
2021/05/25 12:55:51;;;;;;;3.85;0.77;;;19.40;71.00;;;;;;5050910;28;20489;-73
2021/05/25 12:58:43;;;;;;;4.63;1.08;;;19.40;71.00;;;;;;5051633;28;20032;-74
2021/05/25 13:01:32;;;;;;;2.95;0.70;;;19.40;71.70;;;;;;5050404;28;20027;-73
2021/05/25 13:04:06;;;;;;;2.17;0.73;;;19.40;70.80;;;;;;5050550;28;20485;-73